createdAt,value
2019-02-24T00:01:55.657Z,20.13
2019-02-24T00:04:28.052Z,20.70
2019-02-24T00:07:00.510Z,19.40
2019-02-24T00:09:33.135Z,22.50
2019-02-24T00:12:05.473Z,22.37
2019-02-24T00:14:37.986Z,26.67
2019-02-24T00:17:10.499Z,25.30
2019-02-24T00:19:42.871Z,23.17
2019-02-24T00:22:15.608Z,21.33
2019-02-24T00:24:48.033Z,22.00
2019-02-24T00:27:20.648Z,32.30
2019-02-24T00:29:52.973Z,25.20
2019-02-24T00:32:25.363Z,26.60
2019-02-24T00:34:57.762Z,24.00
2019-02-24T00:37:30.151Z,20.53
2019-02-24T00:40:02.500Z,24.93
2019-02-24T00:42:35.350Z,23.23
2019-02-24T00:45:10.272Z,26.50
2019-02-24T00:47:42.903Z,24.67
2019-02-24T00:50:15.558Z,24.03
2019-02-24T00:52:48.448Z,19.30
2019-02-24T00:55:21.203Z,21.07
2019-02-24T00:57:53.825Z,20.10
2019-02-24T01:00:26.300Z,22.43
2019-02-24T01:02:58.781Z,25.40
2019-02-24T01:05:31.539Z,20.70
2019-02-24T01:08:03.957Z,21.13
2019-02-24T01:10:36.346Z,19.57
2019-02-24T01:13:09.169Z,21.13
2019-02-24T01:15:41.706Z,24.07
2019-02-24T01:18:14.150Z,20.53
2019-02-24T01:20:46.572Z,20.90
2019-02-24T01:23:19.348Z,22.50
2019-02-24T01:25:51.823Z,22.13
2019-02-24T01:28:25.512Z,22.13
2019-02-24T01:30:58.055Z,23.97
2019-02-24T01:33:30.475Z,20.80
2019-02-24T01:36:02.873Z,26.60
2019-02-24T01:38:35.896Z,23.53
2019-02-24T01:41:08.409Z,21.60
2019-02-24T01:43:41.009Z,31.67
2019-02-24T01:46:13.465Z,26.33
2019-02-24T01:48:46.167Z,24.13
2019-02-24T01:51:18.689Z,26.80
2019-02-24T01:53:51.202Z,26.37
2019-02-24T01:56:23.952Z,27.87
2019-02-24T01:58:56.388Z,29.77
2019-02-24T02:01:28.940Z,27.53
2019-02-24T02:04:01.342Z,26.77
2019-02-24T02:06:34.232Z,24.77
2019-02-24T02:09:07.963Z,34.33
2019-02-24T02:11:40.503Z,29.67
2019-02-24T02:14:12.972Z,28.53
2019-02-24T02:16:45.857Z,29.03
2019-02-24T02:19:18.880Z,28.17
2019-02-24T02:21:51.423Z,26.50
2019-02-24T02:24:25.007Z,25.17
2019-02-24T02:27:01.245Z,29.93
2019-02-24T02:29:32.751Z,31.13
2019-02-24T02:32:05.633Z,34.23
2019-02-24T02:34:38.324Z,33.23
2019-02-24T02:37:10.674Z,30.57
2019-02-24T02:39:47.674Z,33.70
2019-02-24T02:42:20.023Z,32.10
2019-02-24T02:44:52.581Z,32.03
2019-02-24T02:47:25.450Z,33.43
2019-02-24T02:49:57.952Z,28.30
2019-02-24T02:52:30.373Z,30.43
2019-02-24T02:55:02.740Z,32.00
2019-02-24T02:57:35.342Z,34.93
2019-02-24T03:00:19.530Z,33.87
2019-02-24T03:02:52.124Z,33.20
2019-02-24T03:05:24.620Z,28.10
2019-02-24T03:08:08.745Z,33.77
2019-02-24T03:10:41.227Z,29.73
2019-02-24T03:13:13.826Z,30.90
2019-02-24T03:15:46.262Z,30.10
2019-02-24T03:18:18.593Z,31.07
2019-02-24T03:20:51.311Z,31.40
2019-02-24T03:23:23.659Z,29.90
2019-02-24T03:25:56.106Z,28.57
2019-02-24T03:28:28.595Z,31.83
2019-02-24T03:31:00.948Z,29.37
2019-02-24T03:33:33.395Z,27.63
2019-02-24T03:36:05.784Z,29.03
2019-02-24T03:38:38.397Z,36.63
2019-02-24T03:41:10.826Z,28.73
2019-02-24T03:43:43.168Z,27.77
2019-02-24T03:46:15.851Z,22.10
2019-02-24T03:48:48.700Z,26.53
2019-02-24T03:51:21.389Z,26.70
2019-02-24T03:53:54.695Z,25.80
2019-02-24T03:56:27.819Z,30.13
2019-02-24T03:59:00.282Z,26.20
2019-02-24T04:01:32.656Z,31.97
2019-02-24T04:04:05.159Z,25.87
2019-02-24T04:06:37.697Z,29.50
2019-02-24T04:09:11.775Z,31.50
2019-02-24T04:11:44.310Z,31.20
2019-02-24T04:14:16.758Z,31.43
2019-02-24T04:16:49.506Z,35.37
2019-02-24T04:19:21.928Z,33.43
2019-02-24T04:21:54.296Z,27.87
2019-02-24T04:24:26.790Z,31.23
2019-02-24T04:26:59.212Z,29.40
2019-02-24T04:29:31.645Z,29.87
2019-02-24T04:32:07.157Z,32.27
2019-02-24T04:34:39.559Z,26.93
2019-02-24T04:37:11.999Z,39.40
2019-02-24T04:39:44.623Z,33.23
2019-02-24T04:42:17.162Z,32.07
2019-02-24T04:44:49.883Z,32.93
2019-02-24T04:47:22.250Z,29.13
2019-02-24T04:49:54.545Z,25.50
2019-02-24T04:52:27.032Z,34.10
2019-02-24T04:54:59.494Z,36.27
2019-02-24T04:57:31.831Z,33.90
2019-02-24T05:00:05.739Z,34.10
2019-02-24T05:02:38.088Z,34.67
2019-02-24T05:05:10.589Z,36.37
2019-02-24T05:07:43.315Z,35.30
2019-02-24T05:10:16.031Z,32.00
2019-02-24T05:12:48.580Z,32.37
2019-02-24T05:15:21.009Z,34.07
2019-02-24T05:17:53.610Z,32.30
2019-02-24T05:20:25.920Z,30.30
2019-02-24T05:23:00.046Z,34.93
2019-02-24T05:25:32.433Z,32.63
2019-02-24T05:28:04.843Z,29.57
2019-02-24T05:30:37.348Z,32.33
2019-02-24T05:33:09.801Z,39.70
2019-02-24T05:35:42.129Z,34.37
2019-02-24T05:38:14.536Z,32.60
2019-02-24T05:40:47.125Z,27.60
2019-02-24T05:43:19.515Z,32.77
2019-02-24T05:45:52.056Z,34.40
2019-02-24T05:48:24.401Z,30.07
2019-02-24T05:50:56.735Z,33.90
2019-02-24T05:53:29.510Z,32.97
2019-02-24T05:56:02.274Z,28.80
2019-02-24T05:58:34.839Z,33.57
2019-02-24T06:01:07.101Z,29.90
2019-02-24T06:03:39.486Z,32.73
2019-02-24T06:06:12.006Z,34.40
2019-02-24T06:08:44.551Z,31.53
2019-02-24T06:11:17.106Z,34.97
2019-02-24T06:13:49.402Z,30.17
2019-02-24T06:16:21.869Z,36.43
2019-02-24T06:18:54.343Z,36.80
2019-02-24T06:21:26.770Z,30.27
2019-02-24T06:23:59.338Z,37.03
2019-02-24T06:26:32.157Z,43.70
2019-02-24T06:29:04.941Z,32.87
2019-02-24T06:31:37.678Z,33.27
2019-02-24T06:34:10.304Z,34.90
2019-02-24T06:36:42.825Z,39.60
2019-02-24T06:39:15.401Z,45.80
2019-02-24T06:41:47.981Z,31.00
2019-02-24T06:44:20.549Z,25.73
2019-02-24T06:46:52.974Z,26.27
2019-02-24T06:49:25.698Z,24.80
2019-02-24T06:51:58.063Z,25.93
2019-02-24T06:54:30.585Z,24.23
2019-02-24T06:57:03.120Z,23.43
2019-02-24T06:59:35.732Z,24.23
2019-02-24T07:02:08.131Z,23.93
2019-02-24T07:04:40.648Z,27.33
2019-02-24T07:07:12.907Z,27.70
2019-02-24T07:09:45.495Z,30.37
2019-02-24T07:12:18.094Z,26.07
2019-02-24T07:14:50.559Z,29.30
2019-02-24T07:17:23.060Z,29.73
2019-02-24T07:19:58.801Z,27.77
2019-02-24T07:22:31.354Z,22.47
2019-02-24T07:25:03.837Z,22.13
2019-02-24T07:27:36.312Z,27.90
2019-02-24T07:30:09.404Z,21.40
2019-02-24T07:32:41.893Z,21.53
2019-02-24T07:35:14.384Z,23.70
2019-02-24T07:37:46.842Z,25.43
2019-02-24T07:40:19.348Z,30.50
2019-02-24T07:42:51.683Z,26.13
2019-02-24T07:45:24.448Z,28.53
2019-02-24T07:47:56.913Z,25.07
2019-02-24T07:50:29.714Z,26.17
2019-02-24T07:53:02.204Z,26.90
2019-02-24T07:55:34.691Z,27.73
2019-02-24T07:58:07.122Z,25.43
2019-02-24T08:00:39.704Z,26.63
2019-02-24T08:03:12.362Z,25.60
2019-02-24T08:05:44.946Z,26.77
2019-02-24T08:08:17.378Z,27.67
2019-02-24T08:10:49.808Z,41.53
2019-02-24T08:13:22.457Z,44.70
2019-02-24T08:15:55.157Z,29.37
2019-02-24T08:18:27.742Z,30.43
2019-02-24T08:21:00.412Z,26.83
2019-02-24T08:23:33.020Z,29.27
2019-02-24T08:26:05.694Z,30.73
2019-02-24T08:28:38.181Z,28.77
2019-02-24T08:31:10.653Z,29.73
2019-02-24T08:33:43.389Z,28.37
2019-02-24T08:36:15.744Z,26.33
2019-02-24T08:38:48.350Z,26.03
2019-02-24T08:41:20.738Z,26.77
2019-02-24T08:43:53.303Z,28.67
2019-02-24T08:46:25.707Z,25.40
2019-02-24T08:48:58.190Z,25.67
2019-02-24T08:51:30.691Z,29.10
2019-02-24T08:54:03.027Z,28.53
2019-02-24T08:56:35.828Z,28.93
2019-02-24T08:59:08.461Z,31.70
2019-02-24T09:01:40.798Z,33.57
2019-02-24T09:04:13.389Z,33.33
2019-02-24T09:06:46.053Z,26.83
2019-02-24T09:09:18.614Z,27.37
2019-02-24T09:11:51.748Z,44.07
2019-02-24T09:14:24.237Z,37.10
2019-02-24T09:16:56.802Z,37.50
2019-02-24T09:19:29.217Z,34.37
2019-02-24T09:22:01.859Z,29.80
2019-02-24T09:24:34.240Z,30.57
2019-02-24T09:27:07.118Z,29.03
2019-02-24T09:29:39.703Z,29.20
2019-02-24T09:32:12.346Z,32.80
2019-02-24T09:34:44.716Z,30.80
2019-02-24T09:37:17.125Z,32.07
2019-02-24T09:39:49.585Z,30.93
2019-02-24T09:42:22.089Z,28.23
2019-02-24T09:44:54.636Z,28.93
2019-02-24T09:47:27.198Z,28.53
2019-02-24T09:49:59.603Z,27.60
2019-02-24T09:52:32.325Z,28.33
2019-02-24T09:55:05.137Z,28.03
2019-02-24T09:57:37.960Z,32.70
2019-02-24T10:00:11.519Z,37.43
2019-02-24T10:02:44.300Z,34.77
2019-02-24T10:05:16.861Z,25.93
2019-02-24T10:07:49.398Z,27.17
2019-02-24T10:10:21.744Z,30.37
2019-02-24T10:12:54.596Z,26.60
2019-02-24T10:15:26.966Z,27.57
2019-02-24T10:17:59.498Z,28.07
2019-02-24T10:20:32.010Z,36.37
2019-02-24T10:23:04.757Z,38.03
2019-02-24T10:25:37.222Z,49.00
2019-02-24T10:28:09.975Z,35.30
2019-02-24T10:30:42.473Z,25.03
2019-02-24T10:33:14.982Z,27.07
2019-02-24T10:35:47.341Z,23.47
2019-02-24T10:38:19.914Z,26.07
2019-02-24T10:40:52.379Z,27.03
2019-02-24T10:43:27.082Z,22.57
2019-02-24T10:46:00.486Z,25.50
2019-02-24T10:48:33.114Z,26.83
2019-02-24T10:51:05.609Z,22.93
2019-02-24T10:53:38.453Z,18.10
2019-02-24T10:56:10.830Z,42.37
2019-02-24T10:58:43.335Z,32.53
2019-02-24T11:01:15.838Z,23.40
2019-02-24T11:03:48.328Z,23.60
2019-02-24T11:06:21.069Z,26.37
2019-02-24T11:08:54.057Z,21.00
2019-02-24T11:11:26.678Z,19.47
2019-02-24T11:13:59.781Z,21.33
2019-02-24T11:16:32.635Z,22.97
2019-02-24T11:19:05.452Z,25.57
2019-02-24T11:21:38.178Z,27.33
2019-02-24T11:24:11.076Z,21.97
2019-02-24T11:26:43.640Z,31.60
2019-02-24T11:29:16.160Z,23.20
2019-02-24T11:31:48.741Z,22.20
2019-02-24T11:34:21.384Z,18.93
2019-02-24T11:36:53.776Z,18.37
2019-02-24T11:39:26.235Z,18.60
2019-02-24T11:41:59.478Z,16.03
2019-02-24T11:44:32.007Z,20.73
2019-02-24T11:47:04.482Z,17.97
2019-02-24T11:49:37.232Z,20.20
2019-02-24T11:52:10.050Z,20.13
2019-02-24T11:54:42.640Z,19.10
2019-02-24T11:57:16.370Z,23.70
2019-02-24T11:59:49.826Z,50.07
2019-02-24T12:02:22.202Z,22.73
2019-02-24T12:04:54.592Z,79.33
2019-02-24T12:07:27.043Z,34.00
2019-02-24T12:09:59.487Z,56.00
2019-02-24T12:12:32.065Z,28.40
2019-02-24T12:15:04.856Z,27.87
2019-02-24T12:17:37.473Z,25.83
2019-02-24T12:20:11.752Z,18.20
2019-02-24T12:22:44.300Z,20.93
2019-02-24T12:25:16.988Z,21.83
2019-02-24T12:27:49.497Z,21.97
2019-02-24T12:30:22.083Z,21.17
2019-02-24T12:32:54.655Z,22.23
2019-02-24T12:35:27.142Z,20.50
2019-02-24T12:37:59.695Z,21.70
2019-02-24T12:40:32.114Z,24.13
2019-02-24T12:43:04.460Z,21.87
2019-02-24T12:45:37.084Z,22.30
2019-02-24T12:48:09.501Z,22.40
2019-02-24T12:50:42.054Z,21.37
2019-02-24T12:53:14.545Z,25.73
2019-02-24T12:55:46.952Z,23.00
2019-02-24T12:58:19.432Z,23.57
2019-02-24T13:00:51.889Z,20.30
2019-02-24T13:03:24.370Z,24.00
2019-02-24T13:05:56.811Z,22.47
2019-02-24T13:08:29.323Z,23.53
2019-02-24T13:11:01.792Z,26.03
2019-02-24T13:13:34.369Z,26.37
2019-02-24T13:16:07.017Z,21.17
2019-02-24T13:18:39.759Z,18.63
2019-02-24T13:21:12.524Z,19.93
2019-02-24T13:23:45.359Z,18.60
2019-02-24T13:26:18.001Z,18.67
2019-02-24T13:28:50.802Z,23.60
2019-02-24T13:31:23.492Z,23.80
2019-02-24T13:33:56.093Z,19.23
2019-02-24T13:36:28.655Z,16.70
2019-02-24T13:39:01.180Z,23.60
2019-02-24T13:41:33.732Z,19.13
2019-02-24T13:44:06.384Z,18.27
2019-02-24T13:46:38.885Z,18.83
2019-02-24T13:49:11.520Z,22.93
2019-02-24T13:51:44.047Z,18.43
2019-02-24T13:54:16.442Z,17.90
2019-02-24T13:56:49.069Z,19.70
2019-02-24T13:59:21.663Z,19.87
2019-02-24T14:01:54.220Z,18.43
2019-02-24T14:04:26.803Z,18.53
2019-02-24T14:06:59.218Z,23.47
2019-02-24T14:09:31.820Z,17.53
2019-02-24T14:12:04.359Z,17.37
2019-02-24T14:14:36.871Z,15.80
2019-02-24T14:17:09.584Z,17.17
2019-02-24T14:19:41.945Z,16.33
2019-02-24T14:22:14.471Z,19.07
2019-02-24T14:24:47.099Z,17.37
2019-02-24T14:27:19.711Z,18.97
2019-02-24T14:29:52.405Z,15.57
2019-02-24T14:32:32.850Z,19.63
2019-02-24T14:34:59.210Z,15.57
2019-02-24T14:37:31.862Z,16.63
2019-02-24T14:40:04.635Z,17.63
2019-02-24T14:42:37.536Z,12.87
2019-02-24T14:45:13.737Z,17.33
2019-02-24T14:47:46.234Z,15.07
2019-02-24T14:50:18.767Z,15.03
2019-02-24T14:52:51.215Z,16.73
2019-02-24T14:55:23.809Z,14.33
2019-02-24T14:57:56.375Z,14.70
2019-02-24T15:00:28.889Z,17.27
2019-02-24T15:03:01.566Z,17.30
2019-02-24T15:05:33.966Z,11.63
2019-02-24T15:08:06.383Z,18.70
2019-02-24T15:10:38.775Z,16.57
2019-02-24T15:13:11.247Z,18.23
2019-02-24T15:15:43.598Z,18.87
2019-02-24T15:18:16.976Z,16.10
2019-02-24T15:20:49.483Z,17.93
2019-02-24T15:23:21.901Z,18.47
2019-02-24T15:25:54.300Z,16.80
2019-02-24T15:28:26.984Z,24.87
2019-02-24T15:30:59.354Z,16.87
2019-02-24T15:33:31.921Z,12.17
2019-02-24T15:36:04.582Z,15.50
2019-02-24T15:38:37.081Z,15.83
2019-02-24T15:41:09.634Z,19.43
2019-02-24T15:43:42.231Z,17.20
2019-02-24T15:46:14.915Z,15.77
2019-02-24T15:48:47.467Z,16.40
2019-02-24T15:51:20.598Z,17.60
2019-02-24T15:53:53.310Z,16.83
2019-02-24T15:56:25.852Z,15.80
2019-02-24T15:58:58.183Z,12.93
2019-02-24T16:01:30.460Z,15.77
2019-02-24T16:04:02.946Z,16.67
2019-02-24T16:06:37.403Z,17.60
2019-02-24T16:09:10.654Z,21.30
2019-02-24T16:11:45.894Z,21.60
2019-02-24T16:14:18.251Z,20.63
2019-02-24T16:16:50.712Z,27.53
2019-02-24T16:19:23.353Z,14.80
2019-02-24T16:21:56.112Z,22.80
2019-02-24T16:24:28.592Z,14.33
2019-02-24T16:27:01.117Z,14.53
2019-02-24T16:29:33.878Z,15.30
2019-02-24T16:32:06.357Z,17.00
2019-02-24T16:34:38.842Z,17.83
2019-02-24T16:37:11.282Z,15.83
2019-02-24T16:39:43.803Z,18.07
2019-02-24T16:42:16.282Z,14.50
2019-02-24T16:44:48.775Z,31.30
2019-02-24T16:47:21.650Z,18.37
2019-02-24T16:49:54.340Z,17.90
2019-02-24T16:52:26.873Z,65.37
2019-02-24T16:54:59.354Z,40.50
2019-02-24T16:57:31.819Z,29.60
2019-02-24T17:00:05.873Z,21.07
2019-02-24T17:02:38.650Z,16.87
2019-02-24T17:05:11.458Z,11.00
2019-02-24T17:07:43.919Z,15.93
2019-02-24T17:10:18.518Z,14.93
2019-02-24T17:12:50.961Z,16.40
2019-02-24T17:15:24.346Z,11.03
2019-02-24T17:17:58.997Z,16.33
2019-02-24T17:20:31.778Z,12.40
2019-02-24T17:23:04.678Z,16.63
2019-02-24T17:25:37.523Z,12.67
2019-02-24T17:28:09.910Z,10.97
2019-02-24T17:30:42.947Z,14.53
2019-02-24T17:33:15.404Z,14.37
2019-02-24T17:35:47.925Z,13.50
2019-02-24T17:38:20.643Z,11.47
2019-02-24T17:40:53.233Z,21.17
2019-02-24T17:43:25.603Z,20.63
2019-02-24T17:45:58.352Z,17.33
2019-02-24T17:48:31.965Z,10.33
2019-02-24T17:51:04.685Z,12.17
2019-02-24T17:53:37.160Z,11.37
2019-02-24T17:56:09.684Z,11.50
2019-02-24T17:58:41.951Z,8.90
2019-02-24T18:01:33.198Z,13.90
2019-02-24T18:04:07.557Z,11.70
2019-02-24T18:06:40.384Z,13.27
2019-02-24T18:09:13.194Z,12.30
2019-02-24T18:11:45.725Z,10.33
2019-02-24T18:14:17.960Z,9.20
2019-02-24T18:16:50.685Z,12.13
2019-02-24T18:19:23.125Z,9.83
2019-02-24T18:21:56.783Z,11.67
2019-02-24T18:24:29.159Z,16.50
2019-02-24T18:27:01.540Z,17.83
2019-02-24T18:29:33.994Z,12.40
2019-02-24T18:32:06.535Z,12.53
2019-02-24T18:34:39.126Z,10.77
2019-02-24T18:37:12.617Z,14.40
2019-02-24T18:39:45.188Z,12.43
2019-02-24T18:42:17.841Z,12.97
2019-02-24T18:44:50.864Z,14.93
2019-02-24T18:47:24.100Z,13.03
2019-02-24T18:49:56.598Z,13.60
2019-02-24T18:52:29.492Z,14.60
2019-02-24T18:55:02.506Z,15.10
2019-02-24T18:57:35.060Z,16.27
2019-02-24T19:00:10.772Z,15.47
2019-02-24T19:02:43.196Z,12.80
2019-02-24T19:05:16.264Z,12.87
2019-02-24T19:07:48.913Z,18.87
2019-02-24T19:10:21.677Z,13.97
2019-02-24T19:12:54.103Z,15.23
2019-02-24T19:15:26.814Z,15.40
2019-02-24T19:17:59.817Z,12.60
2019-02-24T19:20:32.388Z,13.80
2019-02-24T19:23:04.978Z,20.17
2019-02-24T19:25:37.561Z,15.17
2019-02-24T19:28:09.986Z,11.90
2019-02-24T19:30:43.489Z,11.53
2019-02-24T19:33:16.819Z,12.57
2019-02-24T19:35:49.235Z,14.60
2019-02-24T19:38:21.615Z,11.27
2019-02-24T19:40:54.214Z,15.17
2019-02-24T19:43:26.644Z,13.93
2019-02-24T19:45:59.160Z,13.57
2019-02-24T19:48:31.778Z,22.63
2019-02-24T19:51:04.077Z,16.47
2019-02-24T19:53:36.870Z,14.90
2019-02-24T19:56:09.461Z,15.07
2019-02-24T19:58:42.215Z,38.30
2019-02-24T20:01:14.869Z,22.50
2019-02-24T20:03:47.417Z,15.30
2019-02-24T20:06:20.139Z,14.17
2019-02-24T20:08:52.494Z,16.50
2019-02-24T20:11:25.344Z,16.10
2019-02-24T20:13:58.249Z,45.87
2019-02-24T20:16:30.663Z,22.67
2019-02-24T20:19:03.444Z,13.83
2019-02-24T20:21:47.150Z,37.93
2019-02-24T20:24:21.126Z,39.60
2019-02-24T20:26:53.535Z,20.47
2019-02-24T20:29:26.072Z,15.13
2019-02-24T20:31:58.684Z,13.60
2019-02-24T20:34:31.638Z,15.70
2019-02-24T20:37:04.237Z,12.00
2019-02-24T20:39:36.951Z,15.47
2019-02-24T20:42:09.332Z,13.10
2019-02-24T20:44:41.942Z,18.97
2019-02-24T20:47:14.489Z,16.07
2019-02-24T20:49:46.983Z,15.00
2019-02-24T20:52:19.748Z,16.93
2019-02-24T20:54:52.400Z,24.63
2019-02-24T20:57:25.011Z,16.40
2019-02-24T20:59:57.951Z,19.30
2019-02-24T21:02:30.263Z,14.87
2019-02-24T21:05:02.704Z,12.80
2019-02-24T21:07:35.290Z,13.50
2019-02-24T21:10:08.614Z,12.87
2019-02-24T21:12:43.346Z,13.30
2019-02-24T21:15:15.979Z,14.80
2019-02-24T21:17:48.525Z,12.57
2019-02-24T21:20:23.968Z,13.87
2019-02-24T21:22:56.512Z,14.40
2019-02-24T21:25:29.310Z,15.87
2019-02-24T21:28:01.814Z,12.23
2019-02-24T21:30:34.241Z,14.10
2019-02-24T21:33:06.975Z,15.07
2019-02-24T21:35:39.522Z,13.17
2019-02-24T21:38:12.056Z,15.33
2019-02-24T21:40:45.070Z,14.63
2019-02-24T21:43:17.428Z,14.07
2019-02-24T21:45:50.947Z,16.00
2019-02-24T21:48:23.641Z,14.07
2019-02-24T21:50:56.050Z,14.27
2019-02-24T21:53:28.778Z,15.37
2019-02-24T21:56:01.348Z,30.67
2019-02-24T21:58:33.977Z,16.43
2019-02-24T22:01:26.999Z,15.33
2019-02-24T22:03:59.579Z,15.23
2019-02-24T22:06:32.063Z,14.17
2019-02-24T22:09:06.514Z,15.43
2019-02-24T22:11:39.129Z,16.13
2019-02-24T22:14:11.701Z,14.97
2019-02-24T22:16:44.281Z,14.97
2019-02-24T22:19:16.557Z,14.27
2019-02-24T22:21:48.958Z,17.03
2019-02-24T22:24:21.342Z,17.37
2019-02-24T22:26:54.077Z,17.80
2019-02-24T22:29:26.652Z,15.67
2019-02-24T22:31:59.156Z,16.03
2019-02-24T22:34:31.712Z,17.40
2019-02-24T22:37:04.299Z,15.53
2019-02-24T22:39:36.799Z,16.63
2019-02-24T22:42:09.352Z,20.20
2019-02-24T22:44:42.017Z,15.77
2019-02-24T22:47:14.377Z,15.30
2019-02-24T22:49:46.834Z,18.57
2019-02-24T22:52:19.279Z,17.37
2019-02-24T22:54:51.767Z,17.57
2019-02-24T22:57:24.124Z,18.47
2019-02-24T22:59:56.534Z,17.07
2019-02-24T23:02:29.469Z,19.80
2019-02-24T23:05:01.905Z,21.03
2019-02-24T23:07:34.655Z,19.90
2019-02-24T23:10:07.475Z,19.80
2019-02-24T23:12:39.888Z,19.50
2019-02-24T23:15:12.629Z,19.17
2019-02-24T23:17:45.074Z,18.03
2019-02-24T23:20:17.639Z,21.63
2019-02-24T23:22:50.037Z,23.70
2019-02-24T23:25:22.531Z,20.50
2019-02-24T23:27:55.110Z,30.07
2019-02-24T23:30:27.416Z,19.00
2019-02-24T23:32:59.859Z,18.73
2019-02-24T23:35:33.188Z,19.27
2019-02-24T23:38:05.674Z,19.07
2019-02-24T23:40:38.163Z,19.43
2019-02-24T23:43:10.950Z,20.03
2019-02-24T23:45:43.377Z,16.33
2019-02-24T23:48:16.279Z,22.30
2019-02-24T23:50:48.671Z,17.63
2019-02-24T23:53:21.135Z,17.13
2019-02-24T23:55:53.555Z,21.00
2019-02-24T23:58:26.100Z,18.30
